Time;durP1;ratioP1;P1;durP2;ratioP2;P2;SDS_P1;SDS_P2;PMS_P1;PMS_P2;Temp;Humidity;BMP_temperature;BMP_pressure;BME280_temperature;BME280_humidity;BME280_pressure;Samples;Min_cycle;Max_cycle;Signal;HPM_P1;HPM_P2
2022/10/25 00:00:06;;;;;;;20.17;7.20;;;11.80;99.90;;;;;;5096534;28;20123;-87
2022/10/25 00:02:35;;;;;;;20.40;9.05;;;11.90;99.90;;;;;;5096541;28;20043;-86
2022/10/25 00:05:02;;;;;;;16.88;7.57;;;11.80;99.90;;;;;;5094081;28;20552;-86
2022/10/25 00:07:27;;;;;;;22.65;9.30;;;11.80;99.90;;;;;;5093443;28;20036;-86
2022/10/25 00:09:53;;;;;;;15.38;8.73;;;11.90;99.90;;;;;;5092585;28;20509;-81
2022/10/25 00:12:19;;;;;;;16.33;8.63;;;11.90;99.90;;;;;;5077091;28;20043;-84
2022/10/25 00:14:45;;;;;;;16.45;8.43;;;13.00;99.90;;;;;;5079257;28;20047;-81
2022/10/25 00:17:11;;;;;;;17.60;9.10;;;11.90;99.90;;;;;;5097610;28;20036;-85
2022/10/25 00:19:37;;;;;;;21.63;9.60;;;11.90;99.90;;;;;;5089053;28;20051;-80
2022/10/25 00:22:03;;;;;;;16.98;9.20;;;12.80;99.90;;;;;;5097606;28;20040;-85
2022/10/25 00:24:28;;;;;;;12.43;8.20;;;11.80;99.90;;;;;;5096918;28;20058;-85
2022/10/25 00:26:55;;;;;;;23.48;9.45;;;13.00;99.90;;;;;;5095629;28;20043;-82
2022/10/25 00:29:20;;;;;;;15.55;8.43;;;11.90;99.90;;;;;;5097092;28;20032;-86
2022/10/25 00:31:46;;;;;;;17.13;9.15;;;11.80;99.90;;;;;;5097647;28;20047;-87
2022/10/25 00:34:12;;;;;;;14.30;8.88;;;11.20;99.90;;;;;;5079332;28;20048;-87
2022/10/25 00:36:38;;;;;;;28.25;10.65;;;11.90;99.90;;;;;;5076463;28;20073;-75
2022/10/25 00:39:04;;;;;;;18.67;9.80;;;11.90;99.90;;;;;;5084086;28;20051;-86
2022/10/25 00:41:33;;;;;;;22.75;11.00;;;11.90;99.90;;;;;;5076134;28;20044;-78
2022/10/25 00:44:36;;;;;;;26.42;10.77;;;11.90;99.90;;;;;;5093814;28;20372;-78
2022/10/25 00:47:15;;;;;;;18.65;11.55;;;12.00;99.90;;;;;;5090869;28;20051;-80
2022/10/25 00:49:43;;;;;;;19.15;10.48;;;12.00;99.90;;;;;;5094087;28;20083;-85
2022/10/25 00:52:09;;;;;;;24.17;11.30;;;12.10;99.90;;;;;;5092253;28;20039;-76
2022/10/25 00:54:41;;;;;;;25.83;11.88;;;12.00;99.90;;;;;;5071508;28;20498;-77
2022/10/25 00:57:14;;;;;;;25.65;11.63;;;12.10;99.90;;;;;;5088390;28;20395;-85
2022/10/25 00:59:41;;;;;;;19.10;11.07;;;12.10;99.90;;;;;;5088812;28;20036;-76
2022/10/25 01:02:07;;;;;;;22.27;11.43;;;12.10;99.90;;;;;;5089157;28;20479;-81
2022/10/25 01:04:33;;;;;;;18.58;11.65;;;12.20;99.90;;;;;;5088911;28;20048;-78
2022/10/25 01:07:00;;;;;;;24.60;12.77;;;12.20;99.90;;;;;;5088650;28;20499;-83
2022/10/25 01:09:29;;;;;;;23.95;12.13;;;13.80;99.90;;;;;;5083140;28;20098;-75
2022/10/25 01:11:55;;;;;;;22.38;12.13;;;12.20;99.90;;;;;;5087836;28;20040;-76
2022/10/25 01:14:22;;;;;;;28.10;12.25;;;12.30;99.90;;;;;;5090523;28;20036;-76
2022/10/25 01:16:53;;;;;;;25.08;11.63;;;12.20;99.90;;;;;;5089225;28;20040;-82
2022/10/25 01:19:46;;;;;;;25.95;12.00;;;12.30;99.90;;;;;;5084773;28;20039;-79
2022/10/25 01:22:41;;;;;;;20.10;12.27;;;12.30;99.90;;;;;;5070917;28;20488;-85
2022/10/25 01:25:37;;;;;;;20.13;10.82;;;12.30;99.90;;;;;;5088655;28;20205;-85
2022/10/25 01:28:05;;;;;;;22.58;12.05;;;12.40;99.90;;;;;;5088184;28;20040;-75
2022/10/25 01:31:09;;;;;;;26.02;12.38;;;12.40;99.90;;;;;;5082766;28;20040;-74
2022/10/25 01:33:42;;;;;;;20.13;11.05;;;12.40;99.90;;;;;;5068969;28;20048;-77
2022/10/25 01:36:21;;;;;;;24.48;11.82;;;12.40;99.90;;;;;;5089461;28;20052;-81
2022/10/25 01:39:25;;;;;;;25.08;11.45;;;13.60;99.90;;;;;;5087008;28;20048;-81
2022/10/25 01:42:15;;;;;;;19.38;10.70;;;12.50;99.90;;;;;;5079248;28;20036;-82
2022/10/25 01:45:11;;;;;;;19.55;9.68;;;12.50;99.90;;;;;;5092314;28;20499;-77
2022/10/25 01:47:47;;;;;;;19.98;10.07;;;12.50;99.90;;;;;;5077323;28;20044;-77
2022/10/25 01:50:18;;;;;;;18.27;10.60;;;12.50;99.90;;;;;;5081933;28;20379;-81
2022/10/25 01:52:44;;;;;;;19.38;9.55;;;12.50;99.90;;;;;;5090319;28;20051;-78
2022/10/25 01:55:12;;;;;;;17.67;9.00;;;12.60;99.90;;;;;;5083351;28;20102;-80
2022/10/25 01:57:44;;;;;;;18.63;9.40;;;14.00;99.90;;;;;;5088693;28;20052;-77
2022/10/25 02:00:12;;;;;;;19.35;9.63;;;12.70;99.90;;;;;;5089521;28;20044;-76
2022/10/25 02:02:47;;;;;;;15.50;9.70;;;12.60;99.90;;;;;;5090271;28;20043;-85
2022/10/25 02:05:18;;;;;;;17.95;9.70;;;12.60;99.90;;;;;;5087181;28;20043;-81
2022/10/25 02:07:51;;;;;;;17.73;9.48;;;12.60;99.90;;;;;;5086427;28;20530;-83
2022/10/25 02:10:28;;;;;;;18.00;9.93;;;12.70;99.90;;;;;;5082483;28;20047;-84
2022/10/25 02:13:36;;;;;;;17.35;9.85;;;12.60;99.90;;;;;;5074028;28;20058;-87
2022/10/25 02:16:14;;;;;;;18.08;9.65;;;12.60;99.90;;;;;;5077708;28;20053;-83
2022/10/25 02:18:45;;;;;;;16.98;8.48;;;13.20;99.90;;;;;;5090822;28;20072;-83
2022/10/25 02:21:12;;;;;;;16.17;9.13;;;12.60;99.90;;;;;;5074620;28;20051;-88
2022/10/25 02:23:39;;;;;;;13.23;9.02;;;12.60;99.90;;;;;;5092595;28;20032;-85
2022/10/25 02:26:07;;;;;;;23.15;9.88;;;12.60;99.90;;;;;;5090194;28;20547;-83
2022/10/25 02:28:37;;;;;;;15.63;8.88;;;12.60;99.90;;;;;;5088100;28;20059;-86
2022/10/25 02:31:05;;;;;;;25.38;10.32;;;12.70;99.90;;;;;;5071852;28;20036;-87
2022/10/25 02:33:30;;;;;;;19.90;9.93;;;12.70;99.90;;;;;;5091739;28;20040;-87
2022/10/25 02:36:08;;;;;;;17.77;9.75;;;12.70;99.90;;;;;;5092949;28;20047;-85
2022/10/25 02:38:34;;;;;;;19.83;9.05;;;12.70;99.90;;;;;;5091893;28;20067;-84
2022/10/25 02:41:02;;;;;;;17.30;9.65;;;12.70;99.90;;;;;;5074630;28;20189;-87
2022/10/25 02:43:28;;;;;;;22.45;10.10;;;12.70;99.90;;;;;;5090984;28;20048;-79
2022/10/25 02:45:53;;;;;;;18.25;10.13;;;12.70;99.90;;;;;;5074365;28;20051;-76
2022/10/25 02:48:19;;;;;;;17.25;10.13;;;13.90;99.90;;;;;;5072850;28;20040;-78
2022/10/25 02:50:44;;;;;;;22.42;10.35;;;12.70;99.90;;;;;;5091028;28;20028;-85
2022/10/25 02:53:10;;;;;;;17.70;9.00;;;12.70;99.90;;;;;;5094685;28;20040;-84
2022/10/25 02:55:36;;;;;;;18.58;9.52;;;12.70;99.90;;;;;;5094473;28;20087;-87
2022/10/25 02:58:01;;;;;;;16.95;9.50;;;13.60;99.90;;;;;;5077440;28;20407;-79
2022/10/25 03:00:28;;;;;;;18.65;9.13;;;12.70;99.90;;;;;;5094817;28;20047;-83
2022/10/25 03:02:54;;;;;;;12.15;9.32;;;12.80;99.90;;;;;;5095051;28;20036;-86
2022/10/25 03:05:19;;;;;;;22.00;11.52;;;12.70;99.90;;;;;;5096118;28;20105;-83
2022/10/25 03:07:45;;;;;;;21.38;10.27;;;12.70;99.90;;;;;;5077452;28;20421;-77
2022/10/25 03:10:11;;;;;;;16.30;9.15;;;13.50;99.90;;;;;;5094214;28;20055;-83
2022/10/25 03:12:36;;;;;;;20.25;9.30;;;13.10;99.90;;;;;;5077721;28;20040;-78
2022/10/25 03:15:02;;;;;;;16.17;7.57;;;12.80;99.90;;;;;;5093716;28;20083;-76
2022/10/25 03:17:28;;;;;;;13.25;7.15;;;12.70;99.90;;;;;;5095253;28;20046;-82
2022/10/25 03:19:54;;;;;;;16.10;7.32;;;12.70;99.90;;;;;;5080939;28;20072;-86
2022/10/25 03:22:19;;;;;;;13.63;6.65;;;12.60;99.90;;;;;;5095500;28;20077;-79
2022/10/25 03:24:45;;;;;;;14.70;7.00;;;12.60;99.90;;;;;;5095143;28;20466;-86
2022/10/25 03:27:11;;;;;;;13.82;6.85;;;12.70;99.90;;;;;;5093617;28;20388;-85
2022/10/25 03:29:36;;;;;;;14.80;6.53;;;14.20;99.90;;;;;;5085806;28;20465;-88
2022/10/25 03:32:04;;;;;;;15.27;7.03;;;13.90;99.90;;;;;;5093435;28;20036;-88
2022/10/25 03:34:30;;;;;;;12.48;6.88;;;12.70;99.90;;;;;;5094687;28;20048;-88
2022/10/25 03:36:56;;;;;;;16.20;7.38;;;12.70;99.90;;;;;;5092300;28;20058;-79
2022/10/25 03:39:22;;;;;;;15.68;7.95;;;12.70;99.90;;;;;;5094253;28;20040;-77
2022/10/25 03:41:48;;;;;;;17.33;7.97;;;12.70;99.90;;;;;;5093519;28;20036;-76
2022/10/25 03:44:13;;;;;;;16.40;7.78;;;14.00;99.90;;;;;;5077335;28;20044;-75
2022/10/25 03:46:39;;;;;;;17.70;8.45;;;12.80;99.90;;;;;;5093306;28;20040;-87
2022/10/25 03:49:05;;;;;;;23.85;10.02;;;12.70;99.90;;;;;;5076648;28;20040;-79
2022/10/25 03:51:30;;;;;;;23.52;8.85;;;12.70;99.90;;;;;;5092193;28;20039;-87
2022/10/25 03:53:56;;;;;;;20.33;8.80;;;12.70;99.90;;;;;;5093338;28;20162;-81
2022/10/25 03:56:22;;;;;;;18.50;8.23;;;12.70;99.90;;;;;;5093276;28;20055;-86
2022/10/25 03:58:47;;;;;;;20.27;8.73;;;12.70;99.90;;;;;;5075728;28;20092;-87
2022/10/25 04:01:13;;;;;;;22.65;9.82;;;11.50;99.90;;;;;;5097350;28;20523;-87
2022/10/25 04:03:39;;;;;;;20.60;9.32;;;12.70;99.90;;;;;;5096003;28;20544;-82
2022/10/25 04:06:05;;;;;;;18.33;9.55;;;13.90;99.90;;;;;;5078885;28;20104;-88
2022/10/25 04:08:31;;;;;;;19.70;9.77;;;12.70;99.90;;;;;;5086574;28;20036;-77
2022/10/25 04:10:56;;;;;;;24.80;10.02;;;12.60;99.90;;;;;;5095168;28;20036;-88
2022/10/25 04:13:22;;;;;;;23.75;10.55;;;13.90;99.90;;;;;;5094522;28;20475;-76
2022/10/25 04:15:47;;;;;;;23.75;9.73;;;13.70;99.90;;;;;;5093784;28;20114;-86
2022/10/25 04:18:13;;;;;;;21.33;9.23;;;12.50;99.90;;;;;;5076347;28;20058;-84
2022/10/25 04:20:39;;;;;;;19.60;10.52;;;12.50;99.90;;;;;;5095684;28;20105;-84
2022/10/25 04:23:04;;;;;;;18.85;9.60;;;12.50;99.90;;;;;;5092451;28;20032;-75
2022/10/25 04:25:30;;;;;;;21.15;9.20;;;12.50;99.90;;;;;;5095696;28;20070;-79
2022/10/25 04:27:58;;;;;;;27.65;10.88;;;13.50;99.90;;;;;;5093154;28;20141;-78
2022/10/25 04:30:24;;;;;;;21.13;9.75;;;12.50;99.90;;;;;;5093677;28;20120;-77
2022/10/25 04:32:49;;;;;;;23.25;9.27;;;12.70;99.90;;;;;;5092017;28;20466;-87
2022/10/25 04:35:15;;;;;;;19.48;8.88;;;12.50;99.90;;;;;;5078529;28;20040;-78
2022/10/25 04:37:41;;;;;;;25.13;9.75;;;12.40;99.90;;;;;;5093912;28;20056;-76
2022/10/25 04:40:07;;;;;;;15.35;9.30;;;12.50;99.90;;;;;;5089657;28;20115;-76
2022/10/25 04:42:34;;;;;;;20.48;10.00;;;12.40;99.90;;;;;;5089161;28;20032;-75
2022/10/25 04:45:00;;;;;;;24.20;10.45;;;12.50;99.90;;;;;;5089283;28;20052;-75
2022/10/25 04:47:29;;;;;;;24.52;11.02;;;13.30;99.90;;;;;;5085919;28;20036;-85
2022/10/25 04:49:54;;;;;;;24.77;9.85;;;12.50;99.90;;;;;;5089429;28;20047;-76
2022/10/25 04:52:20;;;;;;;30.65;10.48;;;12.40;99.90;;;;;;5087382;28;20050;-88
2022/10/25 04:54:46;;;;;;;19.70;9.98;;;12.40;99.90;;;;;;5071676;28;20050;-78
2022/10/25 04:57:11;;;;;;;22.45;9.80;;;13.00;99.90;;;;;;5090069;28;20039;-77
2022/10/25 04:59:37;;;;;;;29.33;9.90;;;12.40;99.90;;;;;;5072463;28;20097;-78
2022/10/25 05:02:03;;;;;;;23.30;10.45;;;13.40;99.90;;;;;;5088431;28;20044;-81
2022/10/25 05:04:28;;;;;;;16.00;9.18;;;12.40;99.90;;;;;;5088774;28;20036;-77
2022/10/25 05:06:54;;;;;;;20.85;10.27;;;12.40;99.90;;;;;;5071565;28;20452;-75
2022/10/25 05:09:19;;;;;;;26.52;11.10;;;12.40;99.90;;;;;;5088741;28;20083;-75
2022/10/25 05:11:45;;;;;;;22.35;11.05;;;12.40;99.90;;;;;;5072039;28;20032;-74
2022/10/25 05:14:11;;;;;;;30.15;12.27;;;13.60;99.90;;;;;;5088394;28;20044;-86
2022/10/25 05:16:38;;;;;;;19.92;11.10;;;12.50;99.90;;;;;;5089382;28;20032;-77
2022/10/25 05:19:03;;;;;;;34.53;11.20;;;12.40;99.90;;;;;;5089937;28;20044;-86
2022/10/25 05:21:29;;;;;;;34.53;12.77;;;13.50;99.90;;;;;;5089112;28;20052;-77
2022/10/25 05:23:56;;;;;;;28.55;12.77;;;12.50;99.90;;;;;;5071913;28;20036;-75
2022/10/25 05:26:22;;;;;;;26.58;12.15;;;12.50;99.90;;;;;;5071277;28;20301;-74
2022/10/25 05:28:50;;;;;;;31.58;12.63;;;12.60;99.90;;;;;;5087115;28;20396;-87
2022/10/25 05:31:19;;;;;;;30.98;12.88;;;12.60;99.90;;;;;;5072194;28;20043;-85
2022/10/25 05:33:47;;;;;;;29.35;12.30;;;12.60;99.90;;;;;;5089605;28;20491;-77
2022/10/25 05:36:13;;;;;;;23.13;11.18;;;12.60;99.90;;;;;;5089709;28;20040;-75
2022/10/25 05:38:40;;;;;;;31.23;12.73;;;12.90;99.90;;;;;;5089629;28;20044;-76
2022/10/25 05:41:06;;;;;;;26.15;10.48;;;12.60;99.90;;;;;;5071430;28;20102;-75
2022/10/25 05:43:32;;;;;;;23.55;10.75;;;12.60;99.90;;;;;;5087427;28;20040;-79
2022/10/25 05:46:12;;;;;;;28.90;13.68;;;13.50;99.90;;;;;;5071624;28;20040;-77
2022/10/25 05:48:38;;;;;;;27.08;11.02;;;12.60;99.90;;;;;;5066684;28;20035;-82
2022/10/25 05:51:10;;;;;;;22.30;8.82;;;12.60;99.90;;;;;;5088609;28;20048;-76
2022/10/25 05:53:35;;;;;;;19.63;8.80;;;12.60;99.90;;;;;;5089420;28;20028;-77
2022/10/25 05:56:01;;;;;;;28.98;8.88;;;12.60;99.90;;;;;;5088043;28;20360;-73
2022/10/25 05:58:27;;;;;;;21.83;7.97;;;12.50;99.90;;;;;;5088534;28;20116;-78
2022/10/25 06:00:52;;;;;;;22.55;8.65;;;12.60;99.90;;;;;;5085296;28;20044;-75
2022/10/25 06:03:18;;;;;;;22.80;8.65;;;12.50;99.90;;;;;;5089130;28;20044;-83
2022/10/25 06:05:43;;;;;;;22.23;8.05;;;12.40;99.90;;;;;;5087538;28;20048;-85
2022/10/25 06:08:09;;;;;;;17.98;8.18;;;12.50;99.90;;;;;;5071147;28;20101;-81
2022/10/25 06:10:35;;;;;;;15.82;7.50;;;12.50;99.90;;;;;;5088050;28;20562;-77
2022/10/25 06:13:00;;;;;;;21.15;7.63;;;12.40;99.90;;;;;;5088433;28;20039;-87
2022/10/25 06:15:26;;;;;;;22.88;7.78;;;12.50;99.90;;;;;;5072195;28;20502;-87
2022/10/25 06:17:51;;;;;;;22.95;9.05;;;13.60;99.90;;;;;;5087065;28;20097;-87
2022/10/25 06:20:17;;;;;;;21.45;8.35;;;12.40;99.90;;;;;;5088912;28;20401;-84
2022/10/25 06:22:43;;;;;;;21.67;7.93;;;12.40;99.90;;;;;;5071070;28;20502;-84
2022/10/25 06:25:09;;;;;;;25.30;8.65;;;12.40;99.90;;;;;;5087294;28;20055;-83
2022/10/25 06:27:35;;;;;;;21.98;8.43;;;11.80;99.90;;;;;;5089056;28;20044;-87
2022/10/25 06:30:01;;;;;;;17.40;8.65;;;12.90;99.90;;;;;;5090323;28;20044;-86
2022/10/25 06:32:27;;;;;;;23.17;8.20;;;13.20;99.90;;;;;;5091032;28;20391;-87
2022/10/25 06:34:53;;;;;;;26.50;7.22;;;12.40;99.90;;;;;;4387078;28;10000731;-84
2022/10/25 06:37:18;;;;;;;25.90;8.10;;;12.40;99.90;;;;;;5073174;28;20044;-90
2022/10/25 06:39:44;;;;;;;24.52;7.82;;;12.40;99.90;;;;;;5093396;28;20094;-74
2022/10/25 06:42:10;;;;;;;19.20;7.20;;;12.60;99.90;;;;;;5089859;28;20052;-85
2022/10/25 06:44:35;;;;;;;24.52;8.32;;;12.00;99.90;;;;;;5091255;28;20399;-85
2022/10/25 06:47:01;;;;;;;17.33;7.20;;;12.40;99.90;;;;;;5071884;28;20407;-89
2022/10/25 06:49:27;;;;;;;21.02;7.63;;;12.30;99.90;;;;;;5089256;28;20042;-84
2022/10/25 06:51:53;;;;;;;18.75;7.38;;;12.40;99.90;;;;;;5095835;28;20069;-74
2022/10/25 06:54:18;;;;;;;16.95;7.38;;;12.40;99.90;;;;;;5093777;28;20059;-86
2022/10/25 06:56:44;;;;;;;20.70;6.93;;;12.40;99.90;;;;;;5072805;28;20124;-84
2022/10/25 06:59:10;;;;;;;27.02;8.27;;;12.40;99.90;;;;;;5084586;28;20045;-88
2022/10/25 07:01:35;;;;;;;20.05;7.13;;;12.40;99.90;;;;;;5079595;28;20119;-82
2022/10/25 07:04:01;;;;;;;19.33;7.30;;;12.50;99.90;;;;;;5075601;28;20038;-87
2022/10/25 07:06:34;;;;;;;19.80;6.72;;;13.40;99.90;;;;;;5090189;28;20562;-83
2022/10/25 07:09:00;;;;;;;18.38;6.57;;;12.40;99.90;;;;;;5092238;28;20088;-86
2022/10/25 07:11:28;;;;;;;28.38;6.97;;;13.30;99.90;;;;;;5091146;28;20093;-74
2022/10/25 07:13:57;;;;;;;17.20;6.50;;;12.40;99.90;;;;;;5088234;28;20060;-75
2022/10/25 07:16:23;;;;;;;18.20;7.03;;;13.50;99.90;;;;;;5091721;28;20040;-73
2022/10/25 07:18:49;;;;;;;29.23;6.32;;;12.40;99.90;;;;;;5089300;28;20040;-75
2022/10/25 07:21:20;;;;;;;17.38;5.95;;;12.40;99.90;;;;;;5090930;28;20067;-77
2022/10/25 07:23:46;;;;;;;21.17;5.70;;;12.40;99.90;;;;;;5090169;28;20066;-78
2022/10/25 07:26:17;;;;;;;23.42;6.25;;;13.50;99.90;;;;;;5074690;28;20066;-84
2022/10/25 07:28:45;;;;;;;12.25;5.43;;;13.60;99.90;;;;;;5088321;28;20486;-85
2022/10/25 07:31:12;;;;;;;21.30;6.05;;;12.40;99.90;;;;;;5093496;28;20132;-87
2022/10/25 07:33:38;;;;;;;21.95;5.95;;;12.40;99.90;;;;;;5092956;28;20048;-84
2022/10/25 07:36:04;;;;;;;22.95;5.93;;;12.40;99.90;;;;;;5074239;28;20032;-88
2022/10/25 07:38:29;;;;;;;15.93;5.47;;;12.40;99.90;;;;;;5073473;28;20086;-87
2022/10/25 07:40:56;;;;;;;19.63;5.60;;;12.70;99.90;;;;;;5074510;28;20048;-76
2022/10/25 07:43:22;;;;;;;14.80;5.15;;;12.40;99.90;;;;;;5074019;28;20114;-73
2022/10/25 07:45:49;;;;;;;18.20;5.38;;;12.40;99.90;;;;;;5092632;28;20048;-74
2022/10/25 07:48:15;;;;;;;20.40;5.18;;;12.40;99.90;;;;;;5091009;28;20048;-77
2022/10/25 07:50:41;;;;;;;16.25;5.85;;;12.50;99.90;;;;;;5073816;28;20042;-84
2022/10/25 07:53:06;;;;;;;18.40;6.03;;;12.50;99.90;;;;;;5074513;28;20089;-74
2022/10/25 07:55:32;;;;;;;16.90;5.07;;;13.80;99.90;;;;;;5092173;28;20043;-80
2022/10/25 07:58:03;;;;;;;19.58;8.68;;;12.50;99.90;;;;;;5090578;28;20118;-80
2022/10/25 08:00:28;;;;;;;22.92;6.50;;;12.60;99.90;;;;;;5091124;28;20059;-76
2022/10/25 08:02:55;;;;;;;24.20;5.82;;;12.60;99.90;;;;;;5090791;28;20487;-87
2022/10/25 08:05:20;;;;;;;17.10;5.88;;;12.80;99.90;;;;;;5092378;28;20044;-88
2022/10/25 08:07:47;;;;;;;20.52;5.25;;;12.70;99.90;;;;;;5090926;28;20028;-89
2022/10/25 08:10:13;;;;;;;20.83;5.72;;;12.70;99.90;;;;;;5090644;28;20510;-75
2022/10/25 08:12:38;;;;;;;20.88;5.25;;;12.70;99.90;;;;;;5074252;28;20078;-77
2022/10/25 08:15:05;;;;;;;18.88;5.85;;;13.90;99.90;;;;;;5092019;28;20048;-77
2022/10/25 08:17:30;;;;;;;17.10;5.53;;;12.80;99.90;;;;;;5089367;28;20044;-82
2022/10/25 08:19:56;;;;;;;21.52;6.80;;;12.90;99.90;;;;;;5092120;28;20268;-80
2022/10/25 08:22:21;;;;;;;19.75;7.25;;;14.60;99.90;;;;;;5092373;28;20050;-77
2022/10/25 08:24:47;;;;;;;14.23;5.72;;;14.20;99.90;;;;;;5089961;28;20028;-78
2022/10/25 08:27:12;;;;;;;31.45;7.43;;;13.00;99.90;;;;;;5091807;28;20039;-76
2022/10/25 08:29:38;;;;;;;20.75;7.18;;;13.00;99.90;;;;;;5069992;28;20044;-82
2022/10/25 08:32:04;;;;;;;21.42;7.32;;;13.50;99.90;;;;;;5091109;28;20069;-81
2022/10/25 08:34:29;;;;;;;21.42;7.38;;;13.00;99.90;;;;;;5090504;28;20036;-75
2022/10/25 08:36:55;;;;;;;22.65;8.15;;;14.40;99.90;;;;;;5090123;28;20104;-86
2022/10/25 08:39:20;;;;;;;24.08;8.75;;;13.90;99.90;;;;;;5089886;28;20407;-78
2022/10/25 08:41:59;;;;;;;25.00;8.20;;;14.20;99.90;;;;;;5090357;28;20119;-79
2022/10/25 08:45:09;;;;;;;31.13;8.57;;;14.00;99.90;;;;;;5074343;28;20480;-79
2022/10/25 08:47:40;;;;;;;25.00;8.85;;;13.20;99.90;;;;;;5083595;28;20418;-81
2022/10/25 08:50:21;;;;;;;21.67;7.85;;;13.40;99.90;;;;;;5078889;28;20044;-87
2022/10/25 08:52:57;;;;;;;22.38;9.57;;;13.40;99.90;;;;;;5066225;28;20135;-86
2022/10/25 08:55:36;;;;;;;18.50;8.88;;;13.60;99.90;;;;;;5081723;28;20511;-82
2022/10/25 08:58:07;;;;;;;74.93;12.70;;;13.40;99.90;;;;;;5081271;28;20031;-82
2022/10/25 09:00:39;;;;;;;21.45;9.10;;;14.60;99.90;;;;;;5080084;28;20047;-78
2022/10/25 09:03:14;;;;;;;28.85;9.63;;;14.60;99.90;;;;;;5083401;28;20381;-79
2022/10/25 09:05:46;;;;;;;23.42;9.13;;;13.60;99.90;;;;;;5089079;28;20048;-82
2022/10/25 09:08:27;;;;;;;22.92;9.60;;;13.60;99.90;;;;;;5067745;28;20048;-80
2022/10/25 09:11:05;;;;;;;26.65;9.82;;;13.60;99.90;;;;;;5071853;28;20491;-79
2022/10/25 09:13:39;;;;;;;19.30;8.15;;;13.60;99.90;;;;;;5089234;28;20051;-80
2022/10/25 09:16:20;;;;;;;20.45;8.20;;;13.60;99.90;;;;;;5061842;28;20060;-79
2022/10/25 09:19:01;;;;;;;22.52;7.72;;;13.60;99.90;;;;;;5070171;28;20100;-78
2022/10/25 09:21:44;;;;;;;23.63;7.88;;;13.70;99.90;;;;;;5088304;28;20048;-78
2022/10/25 09:24:31;;;;;;;14.85;7.55;;;13.70;99.90;;;;;;5083415;28;20502;-81
2022/10/25 09:27:06;;;;;;;27.30;7.97;;;13.80;99.90;;;;;;5088391;28;20082;-79
2022/10/25 09:29:45;;;;;;;21.60;8.20;;;13.80;99.90;;;;;;5083741;28;20123;-81
2022/10/25 09:32:31;;;;;;;16.70;7.53;;;13.80;99.90;;;;;;5090945;28;20058;-81
2022/10/25 09:35:00;;;;;;;26.83;7.32;;;13.80;99.90;;;;;;5088755;28;20040;-77
2022/10/25 09:37:37;;;;;;;21.15;6.97;;;13.80;99.90;;;;;;5089553;28;20044;-77
2022/10/25 09:40:08;;;;;;;24.98;6.63;;;15.20;99.90;;;;;;5090627;28;20052;-78
2022/10/25 09:42:39;;;;;;;17.20;5.97;;;13.90;99.90;;;;;;5090482;28;20032;-77
2022/10/25 09:45:19;;;;;;;22.23;5.68;;;13.90;99.90;;;;;;5084987;28;20036;-79
2022/10/25 09:47:51;;;;;;;26.27;6.10;;;14.00;99.90;;;;;;5089218;28;20036;-80
2022/10/25 09:50:28;;;;;;;15.60;4.93;;;14.10;99.90;;;;;;5072175;28;20109;-79
2022/10/25 09:52:56;;;;;;;20.95;5.47;;;14.10;99.90;;;;;;5078959;28;20124;-81
2022/10/25 09:55:49;;;;;;;16.27;6.10;;;14.10;99.90;;;;;;5087349;28;20055;-80
2022/10/25 09:58:22;;;;;;;21.95;5.90;;;14.10;99.90;;;;;;5062882;28;20044;-78
2022/10/25 10:00:50;;;;;;;15.57;5.60;;;14.10;99.90;;;;;;5086209;28;20052;-79
2022/10/25 10:03:17;;;;;;;17.77;5.55;;;14.20;99.90;;;;;;5063125;28;20059;-80
2022/10/25 10:05:56;;;;;;;14.95;4.47;;;14.20;99.90;;;;;;5079564;28;20036;-80
2022/10/25 10:08:23;;;;;;;20.98;5.05;;;14.30;99.90;;;;;;5079202;28;20052;-80
2022/10/25 10:10:50;;;;;;;20.45;5.07;;;14.50;99.90;;;;;;5080505;28;20044;-79
2022/10/25 10:13:22;;;;;;;12.30;3.50;;;14.40;99.90;;;;;;5086327;28;20063;-79
2022/10/25 10:16:04;;;;;;;15.30;3.50;;;15.50;99.90;;;;;;5072032;28;20052;-79
2022/10/25 10:18:34;;;;;;;12.75;2.90;;;14.50;99.90;;;;;;5083124;28;20133;-79
2022/10/25 10:21:13;;;;;;;10.70;2.80;;;14.60;99.90;;;;;;5089103;28;20035;-79
2022/10/25 10:23:52;;;;;;;18.08;2.83;;;14.60;99.90;;;;;;5084955;28;20498;-78
2022/10/25 10:26:17;;;;;;;18.65;3.13;;;14.70;99.90;;;;;;5081003;28;20043;-79
2022/10/25 10:28:45;;;;;;;18.73;2.95;;;14.70;99.90;;;;;;5088727;28;20503;-79
2022/10/25 10:31:11;;;;;;;13.70;2.20;;;14.70;99.90;;;;;;5079740;28;20044;-79
2022/10/25 10:33:37;;;;;;;16.05;2.65;;;14.70;99.90;;;;;;5089060;28;20036;-78
2022/10/25 10:36:29;;;;;;;10.65;2.42;;;14.70;99.90;;;;;;5067906;28;20550;-78
2022/10/25 10:39:19;;;;;;;15.98;2.78;;;14.80;99.90;;;;;;5087267;28;20047;-79
2022/10/25 10:42:02;;;;;;;10.90;2.92;;;14.90;99.90;;;;;;5089338;28;20044;-78
2022/10/25 10:44:33;;;;;;;13.07;2.20;;;15.00;99.90;;;;;;5082088;28;20076;-79
2022/10/25 10:47:08;;;;;;;17.10;2.53;;;15.00;99.90;;;;;;5088416;28;20361;-79
2022/10/25 10:49:37;;;;;;;13.13;2.28;;;15.00;99.90;;;;;;5087522;28;20051;-79
2022/10/25 10:52:04;;;;;;;21.05;3.22;;;14.80;99.90;;;;;;5087717;28;20061;-78
2022/10/25 10:54:33;;;;;;;11.65;2.80;;;15.20;99.90;;;;;;5088686;28;20479;-78
2022/10/25 10:57:06;;;;;;;13.18;3.33;;;15.20;99.90;;;;;;5071021;28;20398;-79
2022/10/25 10:59:51;;;;;;;12.23;2.42;;;16.30;99.90;;;;;;5087426;28;20040;-79
2022/10/25 11:02:38;;;;;;;17.65;2.60;;;15.20;99.90;;;;;;5081772;28;20044;-78
2022/10/25 11:05:18;;;;;;;11.05;2.10;;;15.30;99.90;;;;;;5085067;28;20047;-78
2022/10/25 11:07:51;;;;;;;12.95;3.78;;;15.30;99.90;;;;;;5088432;28;20062;-79
2022/10/25 11:10:18;;;;;;;9.93;2.30;;;15.30;99.90;;;;;;5088736;28;20040;-85
2022/10/25 11:12:43;;;;;;;11.82;2.85;;;16.10;99.90;;;;;;5086734;28;20044;-78
2022/10/25 11:15:11;;;;;;;14.13;4.10;;;15.40;99.90;;;;;;5089487;28;20040;-82
2022/10/25 11:18:00;;;;;;;15.77;3.13;;;15.40;99.90;;;;;;5073521;28;20044;-78
2022/10/25 11:20:32;;;;;;;9.50;2.47;;;15.50;99.90;;;;;;5062828;28;20058;-78
2022/10/25 11:23:20;;;;;;;16.77;3.17;;;15.50;99.90;;;;;;5067001;28;20036;-77
2022/10/25 11:25:50;;;;;;;10.52;3.55;;;15.40;99.90;;;;;;5091397;28;20040;-83
2022/10/25 11:28:47;;;;;;;10.68;2.00;;;15.50;99.90;;;;;;5073834;28;20491;-78
2022/10/25 11:31:18;;;;;;;15.02;2.90;;;15.50;99.90;;;;;;5091318;28;20044;-77
2022/10/25 11:34:01;;;;;;;18.30;3.67;;;15.50;99.90;;;;;;5073937;28;20118;-78
2022/10/25 11:36:34;;;;;;;14.32;2.60;;;15.50;99.90;;;;;;5099889;28;20040;-77
2022/10/25 11:39:21;;;;;;;8.38;2.28;;;15.60;99.90;;;;;;5091699;28;20054;-76
2022/10/25 11:41:50;;;;;;;12.20;2.75;;;15.70;99.90;;;;;;5092880;28;20169;-77
2022/10/25 11:44:42;;;;;;;17.17;3.47;;;15.80;99.90;;;;;;5091475;28;20040;-77
2022/10/25 11:47:26;;;;;;;11.00;2.22;;;15.80;99.90;;;;;;5091943;28;20073;-77
2022/10/25 11:50:10;;;;;;;10.32;2.25;;;15.90;99.90;;;;;;5091579;28;20118;-77
2022/10/25 11:53:01;;;;;;;12.98;2.67;;;15.90;99.90;;;;;;5086443;28;20067;-78
2022/10/25 11:55:37;;;;;;;9.38;2.55;;;15.90;99.90;;;;;;5072691;28;20083;-77
2022/10/25 11:58:39;;;;;;;15.35;2.05;;;15.90;99.90;;;;;;5074435;28;20079;-77
2022/10/25 12:01:24;;;;;;;7.90;2.20;;;15.90;99.90;;;;;;5070640;28;20043;-77
2022/10/25 12:03:59;;;;;;;11.73;3.63;;;15.80;99.90;;;;;;5093332;28;20119;-77
2022/10/25 12:06:46;;;;;;;14.50;2.88;;;15.90;99.90;;;;;;5092615;28;20044;-76
2022/10/25 12:09:41;;;;;;;11.30;2.85;;;16.00;99.90;;;;;;5089605;28;20040;-78
2022/10/25 12:12:20;;;;;;;8.48;2.45;;;15.90;99.90;;;;;;5090848;28;20055;-76
2022/10/25 12:14:54;;;;;;;9.60;2.15;;;16.80;99.90;;;;;;5084988;28;20071;-77
2022/10/25 12:17:32;;;;;;;7.25;2.35;;;15.80;99.90;;;;;;5090886;28;20107;-77
2022/10/25 12:20:02;;;;;;;12.10;2.35;;;15.80;99.90;;;;;;5092252;28;20071;-76
2022/10/25 12:22:36;;;;;;;9.65;2.05;;;15.90;99.90;;;;;;5077728;28;20063;-77
2022/10/25 12:25:14;;;;;;;11.80;1.95;;;16.00;99.90;;;;;;5090026;28;20044;-77
2022/10/25 12:27:43;;;;;;;10.32;2.38;;;16.10;99.90;;;;;;5100658;28;20040;-77
2022/10/25 12:30:18;;;;;;;10.25;1.80;;;16.30;99.90;;;;;;5089884;28;20051;-77
2022/10/25 12:33:14;;;;;;;11.50;1.98;;;16.50;99.90;;;;;;5090700;28;20542;-76
2022/10/25 12:35:47;;;;;;;11.85;1.98;;;16.50;99.90;;;;;;5089911;28;20131;-76
2022/10/25 12:38:25;;;;;;;10.30;1.75;;;16.50;99.90;;;;;;5091256;28;20485;-77
2022/10/25 12:40:56;;;;;;;5.75;1.88;;;16.40;99.90;;;;;;5073859;28;20376;-78
2022/10/25 12:43:31;;;;;;;5.28;1.30;;;16.30;99.90;;;;;;5089715;28;20123;-77
2022/10/25 12:46:00;;;;;;;10.13;1.92;;;16.40;99.90;;;;;;5073250;28;20403;-77
2022/10/25 12:48:37;;;;;;;6.72;1.92;;;16.10;99.90;;;;;;5086246;28;20427;-76
2022/10/25 12:51:21;;;;;;;6.93;2.20;;;16.20;99.90;;;;;;4373820;28;10000687;-80
2022/10/25 12:53:55;;;;;;;7.50;1.90;;;16.30;99.90;;;;;;5074814;28;20052;-80